createdAt,value
2018-11-20T00:01:27.153Z,66.02
2018-11-20T00:04:17.229Z,65.88
2018-11-20T00:07:19.034Z,66.60
2018-11-20T00:10:17.923Z,65.87
2018-11-20T00:13:19.875Z,66.47
2018-11-20T00:16:08.011Z,66.85
2018-11-20T00:19:03.023Z,66.45
2018-11-20T00:21:53.804Z,66.19
2018-11-20T00:24:43.461Z,65.76
2018-11-20T00:27:35.651Z,66.10
2018-11-20T00:30:26.921Z,65.97
2018-11-20T00:33:23.577Z,66.10
2018-11-20T00:36:11.764Z,66.64
2018-11-20T00:38:55.185Z,66.36
2018-11-20T00:41:50.952Z,65.93
2018-11-20T00:44:38.493Z,67.39
2018-11-20T00:47:23.637Z,65.06
2018-11-20T00:50:15.592Z,65.23
2018-11-20T00:53:03.590Z,66.50
2018-11-20T00:56:21.356Z,65.50
2018-11-20T00:59:18.711Z,66.14
2018-11-20T01:02:11.650Z,66.25
2018-11-20T01:04:53.889Z,66.07
2018-11-20T01:07:42.502Z,66.31
2018-11-20T01:10:29.517Z,66.23
2018-11-20T01:13:34.018Z,65.91
2018-11-20T01:16:26.573Z,66.72
2018-11-20T01:19:13.135Z,66.27
2018-11-20T01:22:01.511Z,65.94
2018-11-20T01:24:50.005Z,66.44
2018-11-20T01:27:38.303Z,65.23
2018-11-20T01:30:40.237Z,66.26
2018-11-20T01:33:21.338Z,66.50
2018-11-20T01:36:10.949Z,66.26
2018-11-20T01:39:06.506Z,66.22
2018-11-20T01:41:54.660Z,66.13
2018-11-20T01:44:44.294Z,66.48
2018-11-20T01:47:46.329Z,65.87
2018-11-20T01:50:35.956Z,66.03
2018-11-20T01:53:30.529Z,65.53
2018-11-20T01:56:18.796Z,66.14
2018-11-20T01:59:20.611Z,66.48
2018-11-20T02:02:13.564Z,65.83
2018-11-20T02:05:00.663Z,66.16
2018-11-20T02:07:50.278Z,66.92
2018-11-20T02:10:38.887Z,65.71
2018-11-20T02:13:58.857Z,66.29
2018-11-20T02:16:49.434Z,66.18
2018-11-20T02:19:47.953Z,66.42
2018-11-20T02:22:55.578Z,66.29
2018-11-20T02:25:54.109Z,66.45
2018-11-20T02:28:37.761Z,66.07
2018-11-20T02:31:27.403Z,66.20
2018-11-20T02:34:16.542Z,67.52
2018-11-20T02:36:55.058Z,66.49
2018-11-20T02:39:46.541Z,66.84
2018-11-20T02:42:26.308Z,66.47
2018-11-20T02:45:18.792Z,66.02
2018-11-20T02:48:06.772Z,66.44
2018-11-20T02:50:55.467Z,66.09
2018-11-20T02:53:51.222Z,67.25
2018-11-20T02:56:47.415Z,66.17
2018-11-20T02:59:35.988Z,67.10
2018-11-20T03:02:25.042Z,65.81
2018-11-20T03:05:13.824Z,66.71
2018-11-20T03:08:01.097Z,66.90
2018-11-20T03:10:53.255Z,66.02
2018-11-20T03:13:41.274Z,66.82
2018-11-20T03:16:33.685Z,67.00
2018-11-20T03:19:12.036Z,66.04
2018-11-20T03:21:59.933Z,66.18
2018-11-20T03:24:47.677Z,66.60
2018-11-20T03:27:40.140Z,66.52
2018-11-20T03:31:09.164Z,65.79
2018-11-20T03:34:08.403Z,67.44
2018-11-20T03:36:51.494Z,66.28
2018-11-20T03:39:43.984Z,66.71
2018-11-20T03:42:45.509Z,66.07
2018-11-20T03:45:47.178Z,66.60
2018-11-20T03:48:36.348Z,67.12
2018-11-20T03:51:24.725Z,65.57
2018-11-20T03:54:17.200Z,66.21
2018-11-20T03:57:06.832Z,65.39
2018-11-20T03:59:56.438Z,65.63
2018-11-20T04:02:42.927Z,65.91
2018-11-20T04:05:29.307Z,66.07
2018-11-20T04:08:17.380Z,66.77
2018-11-20T04:11:05.461Z,66.14
2018-11-20T04:13:58.625Z,65.84
2018-11-20T04:16:46.692Z,66.43
2018-11-20T04:19:41.937Z,66.51
2018-11-20T04:22:44.116Z,66.40
2018-11-20T04:25:36.353Z,66.28
2018-11-20T04:28:31.091Z,66.92
2018-11-20T04:31:51.825Z,66.11
2018-11-20T04:34:44.016Z,66.22
2018-11-20T04:37:32.349Z,66.95
2018-11-20T04:40:20.300Z,66.84
2018-11-20T04:43:09.946Z,66.48
2018-11-20T04:46:11.697Z,66.81
2018-11-20T04:48:59.949Z,66.21
2018-11-20T04:51:52.655Z,66.94
2018-11-20T04:54:45.212Z,66.24
2018-11-20T04:57:50.363Z,67.21
2018-11-20T05:00:48.881Z,66.46
2018-11-20T05:03:41.489Z,66.53
2018-11-20T05:06:29.814Z,65.82
2018-11-20T05:09:28.761Z,65.79
2018-11-20T05:12:24.276Z,65.74
2018-11-20T05:15:13.921Z,66.33
2018-11-20T05:18:02.326Z,67.09
2018-11-20T05:20:40.687Z,66.52
2018-11-20T05:23:33.307Z,66.18
2018-11-20T05:26:21.215Z,66.16
2018-11-20T05:29:11.129Z,66.80
2018-11-20T05:31:59.246Z,66.86
2018-11-20T05:34:54.658Z,67.22
2018-11-20T05:37:31.606Z,66.81
2018-11-20T05:40:27.349Z,65.90
2018-11-20T05:43:16.091Z,67.24
2018-11-20T05:46:10.551Z,67.67
2018-11-20T05:49:00.191Z,67.61
2018-11-20T05:51:49.037Z,66.28
2018-11-20T05:54:38.681Z,67.00
2018-11-20T05:57:35.221Z,67.82
2018-11-20T06:00:29.379Z,67.92
2018-11-20T06:03:14.385Z,68.81
2018-11-20T06:06:22.109Z,67.66
2018-11-20T06:09:13.064Z,68.62
2018-11-20T06:12:17.730Z,66.56
2018-11-20T06:15:13.604Z,66.54
2018-11-20T06:18:15.398Z,65.81
2018-11-20T06:21:03.641Z,67.58
2018-11-20T06:23:55.762Z,66.76
2018-11-20T06:26:41.681Z,66.75
2018-11-20T06:29:29.541Z,67.20
2018-11-20T06:32:27.958Z,67.33
2018-11-20T06:35:18.013Z,67.00
2018-11-20T06:38:13.674Z,66.40
2018-11-20T06:41:03.880Z,67.19
2018-11-20T06:44:09.052Z,66.82
2018-11-20T06:46:56.966Z,67.30
2018-11-20T06:49:55.300Z,66.72
2018-11-20T06:52:57.234Z,66.77
2018-11-20T06:55:47.763Z,66.81
2018-11-20T06:58:40.008Z,67.49
2018-11-20T07:01:19.224Z,66.65
2018-11-20T07:04:14.906Z,66.28
2018-11-20T07:07:07.719Z,68.01
2018-11-20T07:09:55.910Z,67.18
2018-11-20T07:12:44.136Z,67.42
2018-11-20T07:15:35.464Z,67.07
2018-11-20T07:18:25.078Z,68.25
2018-11-20T07:21:23.765Z,67.02
2018-11-20T07:24:13.444Z,68.04
2018-11-20T07:27:03.243Z,66.75
2018-11-20T07:29:51.464Z,66.76
2018-11-20T07:32:50.246Z,67.09
2018-11-20T07:35:38.302Z,67.19
2018-11-20T07:38:26.303Z,67.06
2018-11-20T07:41:15.009Z,66.53
2018-11-20T07:43:59.516Z,66.85
2018-11-20T07:46:44.376Z,66.41
2018-11-20T07:49:30.181Z,67.03
2018-11-20T07:52:26.279Z,66.52
2018-11-20T07:55:16.181Z,67.22
2018-11-20T07:58:17.508Z,66.87
2018-11-20T08:01:10.700Z,66.68
2018-11-20T08:04:07.876Z,67.28
2018-11-20T08:07:00.126Z,67.29
2018-11-20T08:09:46.537Z,67.48
2018-11-20T08:12:27.360Z,66.38
2018-11-20T08:15:16.992Z,66.43
2018-11-20T08:18:15.544Z,67.22
2018-11-20T08:21:05.491Z,68.07
2018-11-20T08:23:53.593Z,65.70
2018-11-20T08:26:41.932Z,65.75
2018-11-20T08:29:29.670Z,65.99
2018-11-20T08:32:28.127Z,65.38
2018-11-20T08:35:23.531Z,66.04
2018-11-20T08:38:23.096Z,66.69
2018-11-20T08:41:11.211Z,65.66
2018-11-20T08:43:59.636Z,64.46
2018-11-20T08:46:47.691Z,65.59
2018-11-20T08:49:37.314Z,65.81
2018-11-20T08:52:29.544Z,66.90
2018-11-20T08:55:12.318Z,65.71
2018-11-20T08:58:00.268Z,65.75
2018-11-20T09:00:58.846Z,64.29
2018-11-20T09:03:57.139Z,65.43
2018-11-20T09:06:45.302Z,64.77
2018-11-20T09:09:34.921Z,64.33
2018-11-20T09:12:29.030Z,66.43
2018-11-20T09:15:18.963Z,65.10
2018-11-20T09:18:14.474Z,64.53
2018-11-20T09:21:04.118Z,63.81
2018-11-20T09:24:08.324Z,64.57
2018-11-20T09:26:51.885Z,65.14
2018-11-20T09:29:38.113Z,64.29
2018-11-20T09:32:20.268Z,63.62
2018-11-20T09:35:06.505Z,63.62
2018-11-20T09:38:04.832Z,63.85
2018-11-20T09:41:06.545Z,63.92
2018-11-20T09:44:09.691Z,63.13
2018-11-20T09:47:01.991Z,64.34
2018-11-20T09:49:40.554Z,64.27
2018-11-20T09:52:29.144Z,63.30
2018-11-20T09:55:28.900Z,64.17
2018-11-20T09:58:17.445Z,63.81
2018-11-20T10:01:19.163Z,65.42
2018-11-20T10:03:57.313Z,63.59
2018-11-20T10:06:43.159Z,64.41
2018-11-20T10:09:31.614Z,64.60
2018-11-20T10:12:20.000Z,63.96
2018-11-20T10:15:10.636Z,64.76
2018-11-20T10:17:59.233Z,64.69
2018-11-20T10:20:54.648Z,65.62
2018-11-20T10:23:42.712Z,64.27
2018-11-20T10:26:30.847Z,64.30
2018-11-20T10:29:38.535Z,64.40
2018-11-20T10:32:17.760Z,65.76
2018-11-20T10:35:10.623Z,65.43
2018-11-20T10:37:50.621Z,64.76
2018-11-20T10:40:43.001Z,65.56
2018-11-20T10:43:31.431Z,64.94
2018-11-20T10:46:39.284Z,64.26
2018-11-20T10:49:34.459Z,65.47
2018-11-20T10:52:30.270Z,65.39
2018-11-20T10:55:26.564Z,63.83
2018-11-20T10:58:07.858Z,64.63
2018-11-20T11:00:55.830Z,65.28
2018-11-20T11:03:43.879Z,65.50
2018-11-20T11:06:33.853Z,65.30
2018-11-20T11:09:22.226Z,65.55
2018-11-20T11:12:15.365Z,65.77
2018-11-20T11:15:14.124Z,65.56
2018-11-20T11:18:21.946Z,65.27
2018-11-20T11:21:11.638Z,65.60
2018-11-20T11:24:04.033Z,64.91
2018-11-20T11:27:08.430Z,65.45
2018-11-20T11:30:00.438Z,65.74
2018-11-20T11:32:48.565Z,66.34
2018-11-20T11:35:36.697Z,66.94
2018-11-20T11:38:26.584Z,66.54
2018-11-20T11:41:33.944Z,65.75
2018-11-20T11:44:23.566Z,65.20
2018-11-20T11:47:09.703Z,66.76
2018-11-20T11:49:58.418Z,65.58
2018-11-20T11:52:39.628Z,67.22
2018-11-20T11:55:27.926Z,67.31
2018-11-20T11:58:29.977Z,66.89
2018-11-20T12:01:18.635Z,67.13
2018-11-20T12:04:10.363Z,67.65
2018-11-20T12:06:58.926Z,65.85
2018-11-20T12:09:51.595Z,66.13
2018-11-20T12:12:59.678Z,66.69
2018-11-20T12:15:55.277Z,66.92
2018-11-20T12:18:50.447Z,66.31
2018-11-20T12:21:55.218Z,66.81
2018-11-20T12:24:43.258Z,66.84
2018-11-20T12:27:32.897Z,66.64
2018-11-20T12:30:16.062Z,68.08
2018-11-20T12:33:08.503Z,67.21
2018-11-20T12:36:15.913Z,67.37
2018-11-20T12:38:55.966Z,67.90
2018-11-20T12:41:34.942Z,68.05
2018-11-20T12:44:23.180Z,68.42
2018-11-20T12:47:15.121Z,68.33
2018-11-20T12:50:00.175Z,69.55
2018-11-20T12:53:02.533Z,70.67
2018-11-20T12:55:49.912Z,70.66
2018-11-20T12:58:38.860Z,71.26
2018-11-20T13:01:27.282Z,71.36
2018-11-20T13:04:11.591Z,71.44
2018-11-20T13:06:57.683Z,71.48
2018-11-20T13:09:42.692Z,72.13
2018-11-20T13:12:32.311Z,72.08
2018-11-20T13:15:28.923Z,72.56
2018-11-20T13:18:16.876Z,72.21
2018-11-20T13:21:18.783Z,71.65
2018-11-20T13:24:05.687Z,72.61
2018-11-20T13:27:13.742Z,71.61
2018-11-20T13:30:12.505Z,71.21
2018-11-20T13:33:08.045Z,70.47
2018-11-20T13:35:56.245Z,70.95
2018-11-20T13:38:44.332Z,71.42
2018-11-20T13:41:53.957Z,71.18
2018-11-20T13:44:55.114Z,70.38
2018-11-20T13:47:53.426Z,70.67
2018-11-20T13:50:47.773Z,70.96
2018-11-20T13:53:35.979Z,70.85
2018-11-20T13:56:25.930Z,71.07
2018-11-20T13:59:33.725Z,71.15
2018-11-20T14:02:23.767Z,71.31
2018-11-20T14:05:28.409Z,71.14
2018-11-20T14:08:10.080Z,71.86
2018-11-20T14:10:49.115Z,71.60
2018-11-20T14:13:33.819Z,71.81
2018-11-20T14:16:22.033Z,71.56
2018-11-20T14:19:18.212Z,71.95
2018-11-20T14:22:16.420Z,72.02
2018-11-20T14:25:18.165Z,71.82
2018-11-20T14:28:06.326Z,72.49
2018-11-20T14:30:55.715Z,71.87
2018-11-20T14:33:43.974Z,72.48
2018-11-20T14:36:32.332Z,72.68
2018-11-20T14:39:27.891Z,73.13
2018-11-20T14:42:29.653Z,73.34
2018-11-20T14:45:20.834Z,72.56
2018-11-20T14:48:16.382Z,73.06
2018-11-20T14:51:17.847Z,73.14
2018-11-20T14:54:01.813Z,73.60
2018-11-20T14:56:42.455Z,73.23
2018-11-20T14:59:31.218Z,73.31
2018-11-20T15:02:19.517Z,72.84
2018-11-20T15:05:09.167Z,73.10
2018-11-20T15:08:10.972Z,72.78
2018-11-20T15:11:21.370Z,72.46
2018-11-20T15:14:23.474Z,73.60
2018-11-20T15:17:11.854Z,73.82
2018-11-20T15:20:00.213Z,73.64
2018-11-20T15:22:53.378Z,73.96
2018-11-20T15:25:49.042Z,74.10
2018-11-20T15:28:37.372Z,73.85
2018-11-20T15:31:24.575Z,74.01
2018-11-20T15:34:23.103Z,74.54
2018-11-20T15:37:11.044Z,74.65
2018-11-20T15:40:12.607Z,75.25
2018-11-20T15:42:55.844Z,75.22
2018-11-20T15:45:48.239Z,75.21
2018-11-20T15:48:37.912Z,75.22
2018-11-20T15:51:23.973Z,75.96
2018-11-20T15:54:19.273Z,76.35
2018-11-20T15:57:07.766Z,76.57
2018-11-20T16:00:00.377Z,76.13
2018-11-20T16:02:55.876Z,77.29
2018-11-20T16:05:43.956Z,77.80
2018-11-20T16:08:42.693Z,78.65
2018-11-20T16:11:32.420Z,78.80
2018-11-20T16:14:27.622Z,79.27
2018-11-20T16:17:17.735Z,79.55
2018-11-20T16:20:12.615Z,80.24
2018-11-20T16:23:02.241Z,80.16
2018-11-20T16:26:01.029Z,80.26
2018-11-20T16:28:49.302Z,80.33
2018-11-20T16:31:30.488Z,80.31
2018-11-20T16:34:18.720Z,80.96
2018-11-20T16:37:14.919Z,81.28
2018-11-20T16:40:20.224Z,81.32
2018-11-20T16:43:10.160Z,81.24
2018-11-20T16:45:59.783Z,81.22
2018-11-20T16:49:01.478Z,80.71
2018-11-20T16:51:56.993Z,80.91
2018-11-20T16:54:36.326Z,81.53
2018-11-20T16:57:27.320Z,82.24
2018-11-20T17:00:19.879Z,82.64
2018-11-20T17:03:07.842Z,83.48
2018-11-20T17:06:09.707Z,82.96
2018-11-20T17:09:11.521Z,83.34
2018-11-20T17:11:59.510Z,83.89
2018-11-20T17:14:40.111Z,84.16
2018-11-20T17:17:28.025Z,84.15
2018-11-20T17:20:26.245Z,83.86
2018-11-20T17:23:14.763Z,83.98
2018-11-20T17:26:04.427Z,84.57
2018-11-20T17:28:49.802Z,84.91
2018-11-20T17:31:40.887Z,85.75
2018-11-20T17:34:30.483Z,85.76
2018-11-20T17:37:18.323Z,85.66
2018-11-20T17:40:07.648Z,85.64
2018-11-20T17:42:55.861Z,86.41
2018-11-20T17:45:45.500Z,87.14
2018-11-20T17:48:33.911Z,85.97
2018-11-20T17:51:17.459Z,85.63
2018-11-20T17:54:05.530Z,85.00
2018-11-20T17:57:13.053Z,84.45
2018-11-20T18:00:20.497Z,84.65
2018-11-20T18:03:08.642Z,84.53
2018-11-20T18:05:56.853Z,84.62
2018-11-20T18:08:45.265Z,84.34
2018-11-20T18:11:41.246Z,83.95
2018-11-20T18:14:33.453Z,83.87
2018-11-20T18:17:31.967Z,83.74
2018-11-20T18:20:36.306Z,83.46
2018-11-20T18:23:24.722Z,83.69
2018-11-20T18:26:23.458Z,83.77
2018-11-20T18:29:10.013Z,83.80
2018-11-20T18:32:02.733Z,83.57
2018-11-20T18:34:44.263Z,83.07
2018-11-20T18:37:46.409Z,83.04
2018-11-20T18:40:35.131Z,82.57
2018-11-20T18:43:20.229Z,82.31
2018-11-20T18:46:09.835Z,81.87
2018-11-20T18:49:07.223Z,81.99
2018-11-20T18:52:08.946Z,81.92
2018-11-20T18:54:58.556Z,82.11
2018-11-20T18:57:47.258Z,82.23
2018-11-20T19:00:46.626Z,82.58
2018-11-20T19:03:35.849Z,82.88
2018-11-20T19:06:24.385Z,82.72
2018-11-20T19:09:19.619Z,83.24
2018-11-20T19:12:24.376Z,83.58
2018-11-20T19:15:14.032Z,83.40
2018-11-20T19:18:10.172Z,84.17
2018-11-20T19:20:58.675Z,84.51
2018-11-20T19:23:46.883Z,85.45
2018-11-20T19:26:36.805Z,85.24
2018-11-20T19:29:32.468Z,85.50
2018-11-20T19:32:20.538Z,85.19
2018-11-20T19:35:08.426Z,84.46
2018-11-20T19:38:16.179Z,83.96
2018-11-20T19:41:11.632Z,83.77
2018-11-20T19:43:59.753Z,83.92
2018-11-20T19:46:49.363Z,83.82
2018-11-20T19:49:32.837Z,83.87
2018-11-20T19:52:17.853Z,84.02
2018-11-20T19:55:25.556Z,83.86
2018-11-20T19:58:13.682Z,84.04
2018-11-20T20:01:01.734Z,82.55
2018-11-20T20:03:49.471Z,82.25
2018-11-20T20:13:35.031Z,80.83
2018-11-20T20:16:23.934Z,82.05
2018-11-20T20:19:12.809Z,82.76
2018-11-20T20:22:00.255Z,83.14
2018-11-20T20:25:07.205Z,82.74
2018-11-20T20:28:04.780Z,82.93
2018-11-20T20:31:02.285Z,83.04
2018-11-20T20:33:54.833Z,82.94
2018-11-20T20:36:55.901Z,83.09
2018-11-20T20:39:43.166Z,83.21
2018-11-20T20:42:30.486Z,83.29
2018-11-20T20:45:31.462Z,83.41
2018-11-20T20:48:20.256Z,83.05
2018-11-20T20:51:09.927Z,84.80
2018-11-20T21:00:23.868Z,84.58
2018-11-20T21:03:04.348Z,84.39
2018-11-20T21:05:51.720Z,84.35
2018-11-20T21:08:45.065Z,84.13
2018-11-20T21:11:49.043Z,84.97
2018-11-20T21:17:27.788Z,86.97
2018-11-20T21:20:16.551Z,86.63
2018-11-20T21:23:05.335Z,86.74
2018-11-20T21:25:54.183Z,87.24
2018-11-20T21:28:41.610Z,86.52
2018-11-20T21:31:42.324Z,86.70
2018-11-20T21:34:46.374Z,86.86
2018-11-20T21:37:47.277Z,86.53
2018-11-20T21:40:36.079Z,87.32
2018-11-20T21:43:36.667Z,88.12
2018-11-20T21:46:40.878Z,88.35
2018-11-20T21:49:28.377Z,88.93
2018-11-20T21:52:17.192Z,88.26
2018-11-20T21:55:11.895Z,88.20
2018-11-20T21:57:55.010Z,87.84
2018-11-20T22:01:18.154Z,88.60
2018-11-20T22:04:05.340Z,89.12
2018-11-20T22:06:52.494Z,89.02
2018-11-20T22:09:42.241Z,89.50
2018-11-20T22:12:33.702Z,89.31
2018-11-20T22:15:20.925Z,88.62
2018-11-20T22:18:08.126Z,88.23
2018-11-20T22:21:06.071Z,88.15
2018-11-20T22:24:01.580Z,87.47
2018-11-20T22:27:05.952Z,87.07
2018-11-20T22:29:53.373Z,87.54
2018-11-20T22:32:48.491Z,88.26
2018-11-20T22:35:43.316Z,89.00
2018-11-20T22:38:46.895Z,89.03
2018-11-20T22:41:34.116Z,89.18
2018-11-20T22:44:28.586Z,89.04
2018-11-20T22:47:24.569Z,88.30
2018-11-20T22:50:19.116Z,87.74
2018-11-20T22:53:14.003Z,87.25
2018-11-20T22:56:11.973Z,86.72
2018-11-20T22:59:03.466Z,86.63
2018-11-20T23:01:50.658Z,86.23
2018-11-20T23:04:40.875Z,85.76
2018-11-20T23:07:28.087Z,85.87
2018-11-20T23:09:57.805Z,85.59
2018-11-20T23:12:28.077Z,85.02
2018-11-20T23:14:57.778Z,84.84
2018-11-20T23:17:27.478Z,85.25
2018-11-20T23:19:57.213Z,85.38
2018-11-20T23:22:27.006Z,85.06
2018-11-20T23:24:56.607Z,85.22
2018-11-20T23:27:26.533Z,85.20
2018-11-20T23:29:56.252Z,85.26
2018-11-20T23:32:25.946Z,83.65
2018-11-20T23:34:56.137Z,82.78
2018-11-20T23:37:25.982Z,81.98
2018-11-20T23:39:56.084Z,80.83
2018-11-20T23:42:25.747Z,80.75
2018-11-20T23:44:55.429Z,81.41
2018-11-20T23:47:25.347Z,82.10
2018-11-20T23:49:55.278Z,81.96
2018-11-20T23:52:25.195Z,82.13
2018-11-20T23:54:54.871Z,82.54
2018-11-20T23:57:24.539Z,83.31
2018-11-20T23:59:54.502Z,83.97
